Nebraska City, NE

7:34 AM CST on December 11, 2017 (GMT -0600)
Nebraska City Municipal

Weather History for KAFK - October, 2014

Change the Weather History Date:

Tuesday, October 14, 2014

  Actual Average (KSDA) Record (KSDA)
Temperature  
Mean Temperature 56 °F -  
Max Temperature 65 °F 71 °F 90 °F (1963)
Min Temperature 48 °F 42 °F 24 °F (1979)
Degree Days  
Heating Degree Days 8    
Growing Degree Days 6 (Base 50)    
Moisture  
Dew Point 35 °F    
Average Humidity 48    
Maximum Humidity 67    
Minimum Humidity 24    
Precipitation  
Precipitation 0.00 in - - ()
Sea Level Pressure  
Sea Level Pressure 29.88 in    
Wind  
Wind Speed 18 mph (NNW)    
Max Wind Speed 25 mph    
Max Gust Speed 36 mph    
Visibility 10 miles    
Events      
Averages and records for this station are not official NWS values.
T = Trace of Precipitation, MM = Missing Value Source: NWS Daily Summary

Daily Weather History Graph

Daily Weather History Graph

Search for Another Location

Airport or City:

Trip Planner

Search our weather history database for the weather conditions in past years. The results will help you decide how hot, cold, wet, or windy it might be!

Date:

Astronomy

Oct. 14, 2014 Rise Set
Actual Time 7:33 AM CDT 6:44 PM CDT
Civil Twilight 7:05 AM CDT 7:12 PM CDT
Nautical Twilight 6:34 AM CDT 7:43 PM CDT
Astronomical Twilight 6:02 AM CDT 8:15 PM CDT
Moon 11:50 PM CDT (10/14) 1:35 PM CDT (10/14)
Length of Visible Light 12h 06m
Length of Day
11h 11m
Waning Gibbous, 61% of the Moon is Illuminated
Oct 14
Waning Gibbous
Oct 15
Last Quarter
Oct 23
New
Oct 30
First Quarter
Nov 6
Full

Hourly Weather History & Observations

Time (CDT) Temp. Dew Point Humidity Pressure Visibility Wind Dir Wind Speed Gust Speed Precip Events Conditions
12:15 AM 55.4 °F 42.3 °F 61% 29.74 in 10.0 mi North 20.7 mph 33.4 mph N/A   Mostly Cloudy
12:35 AM 55.4 °F 41.9 °F 60% 29.74 in 10.0 mi North 23.0 mph 35.7 mph N/A   Scattered Clouds
12:55 AM 55.2 °F 41.7 °F 60% 29.74 in 10.0 mi North 18.4 mph 27.6 mph N/A   Scattered Clouds
1:15 AM 53.8 °F 41.2 °F 62% 29.75 in 10.0 mi North 13.8 mph 26.5 mph N/A   Scattered Clouds
1:35 AM 53.6 °F 41.0 °F 62% 29.75 in 10.0 mi North 18.4 mph 27.6 mph N/A   Clear
1:55 AM 53.2 °F 41.2 °F 64% 29.75 in 10.0 mi North 18.4 mph 24.2 mph N/A   Clear
2:15 AM 53.1 °F 41.0 °F 64% 29.75 in 10.0 mi North 17.3 mph 23.0 mph N/A   Clear
2:35 AM 53.2 °F 41.0 °F 63% 29.76 in 10.0 mi North 18.4 mph 27.6 mph N/A   Clear
2:55 AM 53.1 °F 41.0 °F 64% 29.76 in 10.0 mi North 19.6 mph 28.8 mph N/A   Clear
3:15 AM 53.1 °F 41.0 °F 64% 29.76 in 10.0 mi North 16.1 mph 28.8 mph N/A   Clear
3:35 AM 52.9 °F 40.6 °F 63% 29.76 in 10.0 mi NNW 19.6 mph 27.6 mph N/A   Clear
3:55 AM 52.3 °F 40.3 °F 64% 29.77 in 10.0 mi NNW 16.1 mph 26.5 mph N/A   Clear
4:15 AM 52.0 °F 39.9 °F 63% 29.77 in 10.0 mi NNW 19.6 mph 29.9 mph N/A   Clear
4:35 AM 51.4 °F 39.7 °F 64% 29.78 in 10.0 mi NNW 18.4 mph 24.2 mph N/A   Clear
4:55 AM 50.5 °F 40.1 °F 67% 29.79 in 10.0 mi NNW 16.1 mph 25.3 mph N/A   Clear
5:15 AM 50.5 °F 39.4 °F 66% 29.79 in 10.0 mi NNW 16.1 mph 29.9 mph N/A   Clear
5:35 AM 50.5 °F 39.2 °F 65% 29.79 in 10.0 mi NNW 17.3 mph 26.5 mph N/A   Clear
5:55 AM 50.0 °F 38.7 °F 65% 29.80 in 10.0 mi NNW 18.4 mph 26.5 mph N/A   Clear
6:15 AM 50.2 °F 38.3 °F 64% 29.81 in 10.0 mi North 20.7 mph 26.5 mph N/A   Clear
6:35 AM 50.0 °F 38.1 °F 64% 29.82 in 10.0 mi North 17.3 mph 31.1 mph N/A   Clear
6:55 AM 49.6 °F 37.8 °F 64% 29.83 in 10.0 mi NNW 16.1 mph 24.2 mph N/A   Clear
7:15 AM 49.1 °F 37.8 °F 65% 29.84 in 10.0 mi NNW 16.1 mph 20.7 mph N/A   Clear
7:35 AM 48.7 °F 37.6 °F 65% 29.84 in 10.0 mi NNW 13.8 mph 21.9 mph N/A   Clear
7:55 AM 49.1 °F 37.6 °F 64% 29.85 in 10.0 mi NNW 15.0 mph 20.7 mph N/A   Clear
8:15 AM 49.6 °F 37.6 °F 63% 29.86 in 10.0 mi NNW 13.8 mph 19.6 mph N/A   Clear
8:35 AM 50.5 °F 37.8 °F 62% 29.85 in 10.0 mi NNW 18.4 mph 26.5 mph N/A   Clear
8:55 AM 51.8 °F 37.8 °F 59% 29.85 in 10.0 mi NNW 16.1 mph 24.2 mph N/A   Clear
9:15 AM 53.1 °F 37.9 °F 57% 29.86 in 10.0 mi North 16.1 mph 27.6 mph N/A   Clear
9:35 AM 54.0 °F 38.1 °F 55% 29.87 in 10.0 mi North 20.7 mph 25.3 mph N/A   Clear
9:55 AM 54.7 °F 37.9 °F 53% 29.88 in 10.0 mi NNW 20.7 mph 27.6 mph N/A   Clear
10:10 AM 55.9 °F 38.7 °F 52% 29.89 in 10.0 mi NNW 19.6 mph 27.6 mph N/A   Clear
10:35 AM 57.2 °F 37.8 °F 48% 29.89 in 10.0 mi North 17.3 mph 31.1 mph N/A   Clear
10:55 AM 58.6 °F 37.9 °F 46% 29.89 in 10.0 mi North 18.4 mph 27.6 mph N/A   Clear
11:15 AM 59.4 °F 37.4 °F 44% 29.90 in 10.0 mi NNW 19.6 mph 27.6 mph N/A   Clear
11:35 AM 60.1 °F 36.7 °F 42% 29.90 in 10.0 mi NNW 20.7 mph 31.1 mph N/A   Clear
11:55 AM 61.2 °F 35.2 °F 38% 29.90 in 10.0 mi North 24.2 mph 29.9 mph N/A   Clear
12:15 PM 61.7 °F 33.6 °F 35% 29.90 in 10.0 mi North 24.2 mph 33.4 mph N/A   Clear
12:35 PM 62.6 °F 33.6 °F 34% 29.90 in 10.0 mi North 25.3 mph 33.4 mph N/A   Clear
12:55 PM 63.3 °F 32.7 °F 32% 29.90 in 10.0 mi NNW 20.7 mph 34.5 mph N/A   Clear
1:15 PM 63.5 °F 31.5 °F 30% 29.90 in 10.0 mi North 25.3 mph 29.9 mph N/A   Clear
1:35 PM 64.8 °F 31.1 °F 28% 29.90 in 10.0 mi North 23.0 mph 35.7 mph N/A   Clear
1:55 PM 64.4 °F 30.2 °F 28% 29.90 in 10.0 mi North 21.9 mph 32.2 mph N/A   Clear
2:15 PM 64.6 °F 30.4 °F 28% 29.90 in 10.0 mi North 25.3 mph 29.9 mph N/A   Clear
2:35 PM 64.9 °F 30.4 °F 27% 29.89 in 10.0 mi North 23.0 mph 32.2 mph N/A   Clear
2:55 PM 64.8 °F 30.7 °F 28% 29.89 in 10.0 mi North 19.6 mph 31.1 mph N/A   Clear
3:15 PM 65.3 °F 31.3 °F 28% 29.90 in 10.0 mi NNW 23.0 mph 28.8 mph N/A   Clear
3:35 PM 65.7 °F 30.6 °F 27% 29.90 in 10.0 mi North 19.6 mph 29.9 mph N/A   Clear
3:55 PM 65.5 °F 30.2 °F 27% 29.91 in 10.0 mi NNW 19.6 mph 28.8 mph N/A   Clear
4:15 PM 65.5 °F 30.4 °F 27% 29.91 in 10.0 mi North 20.7 mph 25.3 mph N/A   Clear
4:35 PM 65.7 °F 29.1 °F 25% 29.91 in 10.0 mi North 19.6 mph 25.3 mph N/A   Clear
4:55 PM 65.3 °F 27.7 °F 24% 29.91 in 10.0 mi North 17.3 mph 27.6 mph N/A   Clear
5:15 PM 64.9 °F 28.0 °F 25% 29.91 in 10.0 mi NNW 19.6 mph 25.3 mph N/A   Clear
5:35 PM 64.4 °F 27.7 °F 25% 29.91 in 10.0 mi North 19.6 mph 26.5 mph N/A   Clear
5:55 PM 63.7 °F 27.3 °F 25% 29.92 in 10.0 mi North 16.1 mph 21.9 mph N/A   Clear
6:15 PM 62.6 °F 28.2 °F 27% 29.93 in 10.0 mi NNW 13.8 mph 20.7 mph N/A   Clear
6:35 PM 60.8 °F 28.8 °F 30% 29.93 in 10.0 mi North 13.8 mph 18.4 mph N/A   Clear
6:55 PM 59.5 °F 29.3 °F 32% 29.94 in 10.0 mi North 9.2 mph - N/A   Clear
7:15 PM 56.7 °F 31.1 °F 38% 29.95 in 10.0 mi NNW 8.1 mph - N/A   Clear
7:35 PM 56.3 °F 31.5 °F 39% 29.96 in 10.0 mi NNW 8.1 mph - N/A   Clear
7:55 PM 54.7 °F 32.4 °F 43% 29.97 in 10.0 mi NNW 8.1 mph - N/A   Clear
8:15 PM 54.5 °F 32.0 °F 42% 29.97 in 10.0 mi NNW 8.1 mph - N/A   Clear
8:35 PM 54.0 °F 32.5 °F 44% 29.98 in 10.0 mi NNW 9.2 mph - N/A   Clear
8:55 PM 52.2 °F 33.8 °F 50% 29.98 in 10.0 mi NW 9.2 mph - N/A   Clear
9:15 PM 52.9 °F 33.6 °F 48% 29.98 in 10.0 mi NNW 10.4 mph - N/A   Clear
9:35 PM 54.5 °F 32.9 °F 44% 29.99 in 10.0 mi NNW 8.1 mph - N/A   Clear
9:55 PM 51.6 °F 34.0 °F 51% 29.99 in 10.0 mi NW 8.1 mph - N/A   Clear
10:15 PM 50.7 °F 34.0 °F 53% 30.00 in 10.0 mi NNW 8.1 mph - N/A   Clear
10:30 PM 50.5 °F 33.8 °F 53% 30.00 in 10.0 mi NNW 8.1 mph - N/A   Clear
10:55 PM 50.5 °F 33.4 °F 52% 30.00 in 10.0 mi NNW 9.2 mph - N/A   Clear
11:15 PM 50.4 °F 33.3 °F 52% 30.01 in 10.0 mi NNW 8.1 mph - N/A   Clear
11:35 PM 49.6 °F 33.4 °F 54% 30.00 in 10.0 mi NNW 8.1 mph - N/A   Clear
11:55 PM 49.5 °F 33.3 °F 54% 30.00 in 10.0 mi NNW 8.1 mph - N/A   Clear